Airfield :
LOGIN :

Register | Disclaimer

   EN    FR    IT 

 










Legend :    VFR   Marginal VFR   IFR   Intensive IFR   Very Intensive IFR
Visi :
Ceiling :
>= 8 km
>= 3000ft
5 to 8 km
1000 to 3000 ft
1500m to 5 km
500 to 1000 ft
800 to 1500m
200 to 500 ft
< 800m
< 200 ft
Symbols :   Thunderstorms  Fog  Heavy snow  Heavy precipitations  Wind > 20 kt
SIGMETs :     Misc.  Thunderstorms  Icing  Turbulence  Mountain Waves  Volcanic Ashes






- Airport Elevation : 7 ft
- IATA code : XHE


LFTH - Hyeres

CURRENT METAR :
  • 121330Z AUTO 33010KT 290V360 CAVOK 16/M02 Q0999 TEMPO 33025G35KT

EXPIRED METARs :
  • 121300Z AUTO 33012KT 300V360 CAVOK 16/M02 Q0999 TEMPO 33025G35KT
  • 121230Z AUTO 34017KT CAVOK 16/M01 Q0999 TEMPO 33025G35KT
  • 121200Z AUTO 35014G26KT 310V020 9000 NSC 16/M01 Q0999 TEMPO 33025G35KT
  • 121130Z AUTO 34014KT 300V360 CAVOK 16/00 Q1000 TEMPO 33025G35KT

TAF TAF LFTH
Valid from the 12 at 09:00 until the 13 at 09:00 UTC


120800Z 1209/1309 34015G25KT CAVOK
TEMPO 1209/1222 33025G35KT
BECMG 1304/1307 29010G20KT



MET'MAP, your aeronautical weather chart ! - Copyright ORBIFLY December 2007 - Disclaimer

ORBIFLY MET'MAP TEAM :

Programming & Development : Alexandra Zaïnal
Concept & Development : Baudouin d'Aumeries
Co-Development & Prog : Marc-Olivier Méhu
Technical & hardware support : Manuel Goepfert

Contact : metmap@orbifly.com




SOURCES & CREDITS :

   NOAA